sensor_id;sensor_type;location;lat;lon;timestamp;temperature;humidity
76172;DHT22;64929;51.178;4.138;2023-09-19T00:01:12;16.40;88.30
76172;DHT22;64929;51.178;4.138;2023-09-19T00:03:39;16.40;86.70
76172;DHT22;64929;51.178;4.138;2023-09-19T00:06:08;16.40;87.40
76172;DHT22;64929;51.178;4.138;2023-09-19T00:08:34;16.30;86.80
76172;DHT22;64929;51.178;4.138;2023-09-19T00:11:00;16.30;87.30
76172;DHT22;64929;51.178;4.138;2023-09-19T00:13:32;16.30;87.50
76172;DHT22;64929;51.178;4.138;2023-09-19T00:15:59;16.30;87.80
76172;DHT22;64929;51.178;4.138;2023-09-19T00:18:25;16.30;88.30
76172;DHT22;64929;51.178;4.138;2023-09-19T00:20:59;16.30;87.60
76172;DHT22;64929;51.178;4.138;2023-09-19T00:23:24;16.20;88.00
76172;DHT22;64929;51.178;4.138;2023-09-19T00:25:51;16.20;88.90
76172;DHT22;64929;51.178;4.138;2023-09-19T00:28:17;16.20;87.60
76172;DHT22;64929;51.178;4.138;2023-09-19T00:30:45;16.20;87.50
76172;DHT22;64929;51.178;4.138;2023-09-19T00:33:15;16.20;88.10
76172;DHT22;64929;51.178;4.138;2023-09-19T00:35:52;16.20;88.90
76172;DHT22;64929;51.178;4.138;2023-09-19T00:38:19;16.20;86.90
76172;DHT22;64929;51.178;4.138;2023-09-19T00:40:50;16.30;86.40
76172;DHT22;64929;51.178;4.138;2023-09-19T00:43:22;16.30;85.20
76172;DHT22;64929;51.178;4.138;2023-09-19T00:45:52;16.30;85.60
76172;DHT22;64929;51.178;4.138;2023-09-19T00:48:20;16.20;86.60
76172;DHT22;64929;51.178;4.138;2023-09-19T00:50:47;16.20;86.00
76172;DHT22;64929;51.178;4.138;2023-09-19T00:53:19;16.20;86.00
76172;DHT22;64929;51.178;4.138;2023-09-19T00:55:48;16.20;86.10
76172;DHT22;64929;51.178;4.138;2023-09-19T00:58:17;16.30;85.50
76172;DHT22;64929;51.178;4.138;2023-09-19T01:00:44;16.30;85.30
76172;DHT22;64929;51.178;4.138;2023-09-19T01:03:10;16.30;85.30
76172;DHT22;64929;51.178;4.138;2023-09-19T01:05:38;16.10;85.80
76172;DHT22;64929;51.178;4.138;2023-09-19T01:08:05;16.10;85.80
76172;DHT22;64929;51.178;4.138;2023-09-19T01:10:32;16.00;86.40
76172;DHT22;64929;51.178;4.138;2023-09-19T01:13:08;16.00;85.90
76172;DHT22;64929;51.178;4.138;2023-09-19T01:18:40;16.00;86.80
76172;DHT22;64929;51.178;4.138;2023-09-19T01:26:44;15.90;87.00
76172;DHT22;64929;51.178;4.138;2023-09-19T01:32:05;16.00;87.00
76172;DHT22;64929;51.178;4.138;2023-09-19T01:34:54;16.10;87.40
76172;DHT22;64929;51.178;4.138;2023-09-19T01:37:22;16.00;86.90
76172;DHT22;64929;51.178;4.138;2023-09-19T01:40:00;16.10;87.40
76172;DHT22;64929;51.178;4.138;2023-09-19T01:43:46;16.00;88.30
76172;DHT22;64929;51.178;4.138;2023-09-19T01:48:43;15.90;88.20
76172;DHT22;64929;51.178;4.138;2023-09-19T01:51:14;15.80;89.10
76172;DHT22;64929;51.178;4.138;2023-09-19T01:56:38;15.90;88.70
76172;DHT22;64929;51.178;4.138;2023-09-19T01:59:13;15.90;88.70
76172;DHT22;64929;51.178;4.138;2023-09-19T02:01:42;15.80;89.70
76172;DHT22;64929;51.178;4.138;2023-09-19T02:04:10;15.80;89.30
76172;DHT22;64929;51.178;4.138;2023-09-19T02:06:40;15.80;89.80
76172;DHT22;64929;51.178;4.138;2023-09-19T02:09:06;15.60;90.00
76172;DHT22;64929;51.178;4.138;2023-09-19T02:11:32;15.60;90.50
76172;DHT22;64929;51.178;4.138;2023-09-19T02:13:58;15.60;90.40
76172;DHT22;64929;51.178;4.138;2023-09-19T02:16:25;15.60;90.40
76172;DHT22;64929;51.178;4.138;2023-09-19T02:18:50;15.60;90.60
76172;DHT22;64929;51.178;4.138;2023-09-19T02:21:17;15.60;90.70
76172;DHT22;64929;51.178;4.138;2023-09-19T02:23:44;15.60;90.80
76172;DHT22;64929;51.178;4.138;2023-09-19T02:26:11;15.60;90.90
76172;DHT22;64929;51.178;4.138;2023-09-19T02:28:37;15.60;90.90
76172;DHT22;64929;51.178;4.138;2023-09-19T02:31:03;15.60;90.80
76172;DHT22;64929;51.178;4.138;2023-09-19T02:33:31;15.60;90.90
76172;DHT22;64929;51.178;4.138;2023-09-19T02:36:00;15.50;91.00
76172;DHT22;64929;51.178;4.138;2023-09-19T02:38:26;15.70;90.80
76172;DHT22;64929;51.178;4.138;2023-09-19T02:40:52;15.70;90.90
76172;DHT22;64929;51.178;4.138;2023-09-19T02:43:20;15.70;90.80
76172;DHT22;64929;51.178;4.138;2023-09-19T02:45:47;15.70;90.60
76172;DHT22;64929;51.178;4.138;2023-09-19T02:48:15;15.60;90.60
76172;DHT22;64929;51.178;4.138;2023-09-19T02:50:42;15.60;90.60
76172;DHT22;64929;51.178;4.138;2023-09-19T02:53:09;15.60;90.80
76172;DHT22;64929;51.178;4.138;2023-09-19T02:55:38;15.70;90.90
76172;DHT22;64929;51.178;4.138;2023-09-19T02:58:06;15.60;90.70
76172;DHT22;64929;51.178;4.138;2023-09-19T03:00:33;15.70;90.90
76172;DHT22;64929;51.178;4.138;2023-09-19T03:03:02;15.70;91.10
76172;DHT22;64929;51.178;4.138;2023-09-19T03:05:28;15.70;90.90
76172;DHT22;64929;51.178;4.138;2023-09-19T03:07:57;15.60;91.00
76172;DHT22;64929;51.178;4.138;2023-09-19T03:10:26;15.70;91.20
76172;DHT22;64929;51.178;4.138;2023-09-19T03:12:52;15.70;91.00
76172;DHT22;64929;51.178;4.138;2023-09-19T03:15:18;15.60;91.30
76172;DHT22;64929;51.178;4.138;2023-09-19T03:17:45;15.60;91.40
76172;DHT22;64929;51.178;4.138;2023-09-19T03:20:12;15.70;91.60
76172;DHT22;64929;51.178;4.138;2023-09-19T03:22:39;15.80;91.60
76172;DHT22;64929;51.178;4.138;2023-09-19T03:25:07;15.70;91.50
76172;DHT22;64929;51.178;4.138;2023-09-19T03:27:36;15.70;91.90
76172;DHT22;64929;51.178;4.138;2023-09-19T03:30:04;15.60;92.40
76172;DHT22;64929;51.178;4.138;2023-09-19T03:32:37;15.50;92.80
76172;DHT22;64929;51.178;4.138;2023-09-19T03:35:08;15.60;92.80
76172;DHT22;64929;51.178;4.138;2023-09-19T03:37:36;15.50;93.10
76172;DHT22;64929;51.178;4.138;2023-09-19T03:40:02;15.40;93.40
76172;DHT22;64929;51.178;4.138;2023-09-19T03:42:31;15.60;93.30
76172;DHT22;64929;51.178;4.138;2023-09-19T03:44:56;15.70;93.20
76172;DHT22;64929;51.178;4.138;2023-09-19T03:47:22;15.70;93.10
76172;DHT22;64929;51.178;4.138;2023-09-19T03:49:48;15.60;93.70
76172;DHT22;64929;51.178;4.138;2023-09-19T03:52:14;15.40;94.10
76172;DHT22;64929;51.178;4.138;2023-09-19T03:54:41;15.30;94.20
76172;DHT22;64929;51.178;4.138;2023-09-19T03:57:08;15.40;94.30
76172;DHT22;64929;51.178;4.138;2023-09-19T03:59:34;15.40;94.60
76172;DHT22;64929;51.178;4.138;2023-09-19T04:02:01;15.50;94.40
76172;DHT22;64929;51.178;4.138;2023-09-19T04:04:27;15.50;94.40
76172;DHT22;64929;51.178;4.138;2023-09-19T04:06:54;15.50;94.50
76172;DHT22;64929;51.178;4.138;2023-09-19T04:09:20;15.60;94.50
76172;DHT22;64929;51.178;4.138;2023-09-19T04:11:46;15.60;94.30
76172;DHT22;64929;51.178;4.138;2023-09-19T04:14:12;15.70;94.20
76172;DHT22;64929;51.178;4.138;2023-09-19T04:16:38;15.60;94.30
76172;DHT22;64929;51.178;4.138;2023-09-19T04:19:04;15.50;94.30
76172;DHT22;64929;51.178;4.138;2023-09-19T04:21:30;15.60;94.30
76172;DHT22;64929;51.178;4.138;2023-09-19T04:23:56;15.50;94.40
76172;DHT22;64929;51.178;4.138;2023-09-19T04:26:22;15.60;94.30
76172;DHT22;64929;51.178;4.138;2023-09-19T04:28:47;15.50;94.40
76172;DHT22;64929;51.178;4.138;2023-09-19T04:31:14;15.60;94.40
76172;DHT22;64929;51.178;4.138;2023-09-19T04:33:40;15.50;94.40
76172;DHT22;64929;51.178;4.138;2023-09-19T04:36:06;15.60;94.60
76172;DHT22;64929;51.178;4.138;2023-09-19T04:38:33;15.50;94.60
76172;DHT22;64929;51.178;4.138;2023-09-19T04:40:59;15.60;94.30
76172;DHT22;64929;51.178;4.138;2023-09-19T04:43:25;15.50;94.30
76172;DHT22;64929;51.178;4.138;2023-09-19T04:45:51;15.40;94.90
76172;DHT22;64929;51.178;4.138;2023-09-19T04:48:22;15.40;94.50
76172;DHT22;64929;51.178;4.138;2023-09-19T04:50:49;15.30;94.80
76172;DHT22;64929;51.178;4.138;2023-09-19T04:53:15;15.30;94.90
76172;DHT22;64929;51.178;4.138;2023-09-19T04:55:40;15.40;94.80
76172;DHT22;64929;51.178;4.138;2023-09-19T04:58:06;15.40;94.90
76172;DHT22;64929;51.178;4.138;2023-09-19T05:00:32;15.40;94.90
76172;DHT22;64929;51.178;4.138;2023-09-19T05:03:00;15.40;95.00
76172;DHT22;64929;51.178;4.138;2023-09-19T05:05:27;15.50;94.80
76172;DHT22;64929;51.178;4.138;2023-09-19T05:07:54;15.50;95.00
76172;DHT22;64929;51.178;4.138;2023-09-19T05:10:21;15.30;95.00
76172;DHT22;64929;51.178;4.138;2023-09-19T05:12:47;15.30;95.40
76172;DHT22;64929;51.178;4.138;2023-09-19T05:15:14;15.10;95.30
76172;DHT22;64929;51.178;4.138;2023-09-19T05:17:40;15.30;95.20
76172;DHT22;64929;51.178;4.138;2023-09-19T05:20:06;15.40;94.90
76172;DHT22;64929;51.178;4.138;2023-09-19T05:25:32;15.40;94.90
76172;DHT22;64929;51.178;4.138;2023-09-19T05:27:58;15.40;95.10
76172;DHT22;64929;51.178;4.138;2023-09-19T05:30:25;15.30;95.20
76172;DHT22;64929;51.178;4.138;2023-09-19T05:32:53;15.30;95.30
76172;DHT22;64929;51.178;4.138;2023-09-19T05:35:20;15.30;95.30
76172;DHT22;64929;51.178;4.138;2023-09-19T05:37:47;15.20;95.40
76172;DHT22;64929;51.178;4.138;2023-09-19T05:40:17;15.10;95.60
76172;DHT22;64929;51.178;4.138;2023-09-19T05:42:43;15.20;95.40
76172;DHT22;64929;51.178;4.138;2023-09-19T05:45:13;15.30;95.50
76172;DHT22;64929;51.178;4.138;2023-09-19T05:47:41;15.30;95.50
76172;DHT22;64929;51.178;4.138;2023-09-19T05:50:09;15.30;95.40
76172;DHT22;64929;51.178;4.138;2023-09-19T05:52:36;15.20;95.70
76172;DHT22;64929;51.178;4.138;2023-09-19T05:55:04;15.20;95.80
76172;DHT22;64929;51.178;4.138;2023-09-19T05:57:30;15.20;95.70
76172;DHT22;64929;51.178;4.138;2023-09-19T05:59:57;15.30;95.40
76172;DHT22;64929;51.178;4.138;2023-09-19T06:02:23;15.30;95.70
76172;DHT22;64929;51.178;4.138;2023-09-19T06:04:48;15.20;95.90
76172;DHT22;64929;51.178;4.138;2023-09-19T06:07:15;15.20;96.00
76172;DHT22;64929;51.178;4.138;2023-09-19T06:09:42;15.20;95.90
76172;DHT22;64929;51.178;4.138;2023-09-19T06:12:08;15.20;96.00
76172;DHT22;64929;51.178;4.138;2023-09-19T06:14:34;15.20;96.10
76172;DHT22;64929;51.178;4.138;2023-09-19T06:16:59;15.20;96.10
76172;DHT22;64929;51.178;4.138;2023-09-19T06:19:25;15.20;96.20
76172;DHT22;64929;51.178;4.138;2023-09-19T06:21:53;15.20;96.20
76172;DHT22;64929;51.178;4.138;2023-09-19T06:24:21;15.30;96.00
76172;DHT22;64929;51.178;4.138;2023-09-19T06:26:47;15.20;96.20
76172;DHT22;64929;51.178;4.138;2023-09-19T06:29:13;15.20;96.10
76172;DHT22;64929;51.178;4.138;2023-09-19T06:31:39;15.30;96.10
76172;DHT22;64929;51.178;4.138;2023-09-19T06:34:05;15.40;96.00
76172;DHT22;64929;51.178;4.138;2023-09-19T06:36:32;15.30;96.10
76172;DHT22;64929;51.178;4.138;2023-09-19T06:38:58;15.50;95.90
76172;DHT22;64929;51.178;4.138;2023-09-19T06:41:24;15.40;95.90
76172;DHT22;64929;51.178;4.138;2023-09-19T06:43:50;15.30;96.10
76172;DHT22;64929;51.178;4.138;2023-09-19T06:46:19;15.40;96.10
76172;DHT22;64929;51.178;4.138;2023-09-19T06:48:45;15.60;95.80
76172;DHT22;64929;51.178;4.138;2023-09-19T06:51:13;15.60;95.60
76172;DHT22;64929;51.178;4.138;2023-09-19T06:53:41;15.60;95.70
76172;DHT22;64929;51.178;4.138;2023-09-19T06:56:07;15.70;95.70
76172;DHT22;64929;51.178;4.138;2023-09-19T06:58:33;15.50;96.10
76172;DHT22;64929;51.178;4.138;2023-09-19T07:01:02;15.60;95.90
76172;DHT22;64929;51.178;4.138;2023-09-19T07:03:28;15.60;95.80
76172;DHT22;64929;51.178;4.138;2023-09-19T07:05:54;15.60;96.00
76172;DHT22;64929;51.178;4.138;2023-09-19T07:08:21;15.50;96.10
76172;DHT22;64929;51.178;4.138;2023-09-19T07:10:47;15.50;96.00
76172;DHT22;64929;51.178;4.138;2023-09-19T07:13:19;15.50;96.10
76172;DHT22;64929;51.178;4.138;2023-09-19T07:15:45;15.70;96.00
76172;DHT22;64929;51.178;4.138;2023-09-19T07:18:16;15.70;95.80
76172;DHT22;64929;51.178;4.138;2023-09-19T07:20:44;15.80;95.80
76172;DHT22;64929;51.178;4.138;2023-09-19T07:23:32;15.80;95.80
76172;DHT22;64929;51.178;4.138;2023-09-19T07:26:01;15.80;95.50
76172;DHT22;64929;51.178;4.138;2023-09-19T07:28:27;15.90;95.40
76172;DHT22;64929;51.178;4.138;2023-09-19T07:30:53;16.00;95.10
76172;DHT22;64929;51.178;4.138;2023-09-19T07:33:19;16.00;95.30
76172;DHT22;64929;51.178;4.138;2023-09-19T07:35:48;16.00;94.90
76172;DHT22;64929;51.178;4.138;2023-09-19T07:38:14;16.10;95.30
76172;DHT22;64929;51.178;4.138;2023-09-19T07:40:40;16.10;95.20
76172;DHT22;64929;51.178;4.138;2023-09-19T07:43:06;16.20;95.20
76172;DHT22;64929;51.178;4.138;2023-09-19T07:45:32;16.30;94.80
76172;DHT22;64929;51.178;4.138;2023-09-19T07:47:58;16.40;94.60
76172;DHT22;64929;51.178;4.138;2023-09-19T07:50:26;16.40;94.60
76172;DHT22;64929;51.178;4.138;2023-09-19T07:52:52;16.50;94.30
76172;DHT22;64929;51.178;4.138;2023-09-19T07:55:19;16.40;94.20
76172;DHT22;64929;51.178;4.138;2023-09-19T07:57:49;16.40;94.70
76172;DHT22;64929;51.178;4.138;2023-09-19T08:00:15;16.50;94.70
76172;DHT22;64929;51.178;4.138;2023-09-19T08:02:41;16.50;94.60
76172;DHT22;64929;51.178;4.138;2023-09-19T08:05:11;16.70;94.10
76172;DHT22;64929;51.178;4.138;2023-09-19T08:07:43;16.60;94.00
76172;DHT22;64929;51.178;4.138;2023-09-19T08:10:09;16.70;94.70
76172;DHT22;64929;51.178;4.138;2023-09-19T08:12:43;16.70;94.20
76172;DHT22;64929;51.178;4.138;2023-09-19T08:15:21;16.70;94.10
76172;DHT22;64929;51.178;4.138;2023-09-19T08:17:47;16.70;94.30
76172;DHT22;64929;51.178;4.138;2023-09-19T08:20:13;16.80;94.10
76172;DHT22;64929;51.178;4.138;2023-09-19T08:22:53;17.00;93.70
76172;DHT22;64929;51.178;4.138;2023-09-19T08:25:23;17.10;93.40
76172;DHT22;64929;51.178;4.138;2023-09-19T08:27:49;17.10;93.50
76172;DHT22;64929;51.178;4.138;2023-09-19T08:30:17;17.20;93.10
76172;DHT22;64929;51.178;4.138;2023-09-19T08:32:43;17.20;93.60
76172;DHT22;64929;51.178;4.138;2023-09-19T08:35:12;17.20;93.70
76172;DHT22;64929;51.178;4.138;2023-09-19T08:37:43;17.30;93.30
76172;DHT22;64929;51.178;4.138;2023-09-19T08:40:11;17.40;93.30
76172;DHT22;64929;51.178;4.138;2023-09-19T08:42:59;17.50;93.30
76172;DHT22;64929;51.178;4.138;2023-09-19T08:45:27;17.50;92.60
76172;DHT22;64929;51.178;4.138;2023-09-19T08:50:47;17.50;92.70
76172;DHT22;64929;51.178;4.138;2023-09-19T08:53:22;17.40;92.70
76172;DHT22;64929;51.178;4.138;2023-09-19T08:55:53;17.40;92.50
76172;DHT22;64929;51.178;4.138;2023-09-19T08:58:25;17.40;92.40
76172;DHT22;64929;51.178;4.138;2023-09-19T09:00:54;17.40;92.90
76172;DHT22;64929;51.178;4.138;2023-09-19T09:03:20;17.30;93.00
76172;DHT22;64929;51.178;4.138;2023-09-19T09:05:47;17.30;92.00
76172;DHT22;64929;51.178;4.138;2023-09-19T09:08:15;17.20;92.10
76172;DHT22;64929;51.178;4.138;2023-09-19T09:10:47;17.40;92.30
76172;DHT22;64929;51.178;4.138;2023-09-19T09:13:14;17.40;92.60
76172;DHT22;64929;51.178;4.138;2023-09-19T09:15:41;17.50;92.50
76172;DHT22;64929;51.178;4.138;2023-09-19T09:18:07;17.50;91.90
76172;DHT22;64929;51.178;4.138;2023-09-19T09:20:33;17.60;91.70
76172;DHT22;64929;51.178;4.138;2023-09-19T09:22:59;17.70;91.20
76172;DHT22;64929;51.178;4.138;2023-09-19T09:25:55;17.60;91.00
76172;DHT22;64929;51.178;4.138;2023-09-19T09:28:25;17.60;90.50
76172;DHT22;64929;51.178;4.138;2023-09-19T09:30:52;17.60;90.90
76172;DHT22;64929;51.178;4.138;2023-09-19T09:33:18;17.70;90.80
76172;DHT22;64929;51.178;4.138;2023-09-19T09:38:21;17.70;90.90
76172;DHT22;64929;51.178;4.138;2023-09-19T09:40:52;17.80;90.40
76172;DHT22;64929;51.178;4.138;2023-09-19T09:43:27;17.80;90.30
76172;DHT22;64929;51.178;4.138;2023-09-19T09:51:38;18.10;89.40
76172;DHT22;64929;51.178;4.138;2023-09-19T09:54:15;18.20;89.40
76172;DHT22;64929;51.178;4.138;2023-09-19T09:56:56;18.20;90.00
76172;DHT22;64929;51.178;4.138;2023-09-19T09:59:53;18.40;89.00
76172;DHT22;64929;51.178;4.138;2023-09-19T10:02:26;18.40;88.90
76172;DHT22;64929;51.178;4.138;2023-09-19T10:04:55;18.30;89.40
76172;DHT22;64929;51.178;4.138;2023-09-19T10:07:40;18.30;89.10
76172;DHT22;64929;51.178;4.138;2023-09-19T10:10:12;18.30;89.00
76172;DHT22;64929;51.178;4.138;2023-09-19T10:12:42;18.40;90.40
76172;DHT22;64929;51.178;4.138;2023-09-19T10:15:11;18.50;90.20
76172;DHT22;64929;51.178;4.138;2023-09-19T10:17:45;18.60;89.50
76172;DHT22;64929;51.178;4.138;2023-09-19T10:20:16;18.80;89.30
76172;DHT22;64929;51.178;4.138;2023-09-19T10:22:50;19.00;90.10
76172;DHT22;64929;51.178;4.138;2023-09-19T10:25:27;18.90;88.90
76172;DHT22;64929;51.178;4.138;2023-09-19T10:27:54;18.90;88.50
76172;DHT22;64929;51.178;4.138;2023-09-19T10:30:22;18.90;88.40
76172;DHT22;64929;51.178;4.138;2023-09-19T10:33:02;18.80;88.70
76172;DHT22;64929;51.178;4.138;2023-09-19T10:35:29;19.00;88.20
76172;DHT22;64929;51.178;4.138;2023-09-19T10:37:59;19.00;89.10
76172;DHT22;64929;51.178;4.138;2023-09-19T10:40:27;19.00;88.50
76172;DHT22;64929;51.178;4.138;2023-09-19T10:43:05;19.10;88.30
76172;DHT22;64929;51.178;4.138;2023-09-19T10:45:35;19.20;88.10
76172;DHT22;64929;51.178;4.138;2023-09-19T10:48:04;19.20;87.40
76172;DHT22;64929;51.178;4.138;2023-09-19T10:50:35;19.40;86.60
76172;DHT22;64929;51.178;4.138;2023-09-19T10:53:04;19.40;87.30
76172;DHT22;64929;51.178;4.138;2023-09-19T10:55:32;19.40;86.80
76172;DHT22;64929;51.178;4.138;2023-09-19T10:58:01;19.50;86.60
76172;DHT22;64929;51.178;4.138;2023-09-19T11:00:30;19.60;88.50
76172;DHT22;64929;51.178;4.138;2023-09-19T11:05:41;19.60;86.20
76172;DHT22;64929;51.178;4.138;2023-09-19T11:08:10;19.50;86.10
76172;DHT22;64929;51.178;4.138;2023-09-19T11:10:47;19.60;86.80
76172;DHT22;64929;51.178;4.138;2023-09-19T11:13:26;19.70;86.60
76172;DHT22;64929;51.178;4.138;2023-09-19T11:26:50;19.90;84.50
76172;DHT22;64929;51.178;4.138;2023-09-19T11:31:52;19.70;86.50
76172;DHT22;64929;51.178;4.138;2023-09-19T11:40:08;20.10;84.50
76172;DHT22;64929;51.178;4.138;2023-09-19T11:42:46;20.10;84.40
76172;DHT22;64929;51.178;4.138;2023-09-19T11:48:18;20.00;84.80
76172;DHT22;64929;51.178;4.138;2023-09-19T11:50:45;19.90;84.80
76172;DHT22;64929;51.178;4.138;2023-09-19T11:53:12;19.90;85.50
76172;DHT22;64929;51.178;4.138;2023-09-19T11:55:39;20.00;84.00
76172;DHT22;64929;51.178;4.138;2023-09-19T11:58:09;20.00;85.40
76172;DHT22;64929;51.178;4.138;2023-09-19T12:00:38;20.00;85.50
76172;DHT22;64929;51.178;4.138;2023-09-19T12:03:12;20.10;84.90
76172;DHT22;64929;51.178;4.138;2023-09-19T12:05:40;19.90;85.30
76172;DHT22;64929;51.178;4.138;2023-09-19T12:08:07;19.90;85.10
76172;DHT22;64929;51.178;4.138;2023-09-19T12:10:48;19.90;85.30
76172;DHT22;64929;51.178;4.138;2023-09-19T12:13:18;20.10;85.10
76172;DHT22;64929;51.178;4.138;2023-09-19T12:15:45;20.10;83.40
76172;DHT22;64929;51.178;4.138;2023-09-19T12:18:29;20.10;82.90
76172;DHT22;64929;51.178;4.138;2023-09-19T12:20:55;20.00;82.80
76172;DHT22;64929;51.178;4.138;2023-09-19T12:23:23;19.90;82.80
76172;DHT22;64929;51.178;4.138;2023-09-19T12:25:49;19.90;84.70
76172;DHT22;64929;51.178;4.138;2023-09-19T12:28:19;19.90;84.60
76172;DHT22;64929;51.178;4.138;2023-09-19T12:30:48;20.10;83.30
76172;DHT22;64929;51.178;4.138;2023-09-19T12:33:18;20.10;82.80
76172;DHT22;64929;51.178;4.138;2023-09-19T12:35:51;20.20;84.30
76172;DHT22;64929;51.178;4.138;2023-09-19T12:38:28;20.10;85.40
76172;DHT22;64929;51.178;4.138;2023-09-19T12:40:55;20.10;83.30
76172;DHT22;64929;51.178;4.138;2023-09-19T12:43:22;20.10;84.00
76172;DHT22;64929;51.178;4.138;2023-09-19T12:45:48;20.00;83.40
76172;DHT22;64929;51.178;4.138;2023-09-19T12:48:22;20.10;85.40
76172;DHT22;64929;51.178;4.138;2023-09-19T12:51:12;20.10;83.80
76172;DHT22;64929;51.178;4.138;2023-09-19T12:53:43;20.00;83.70
76172;DHT22;64929;51.178;4.138;2023-09-19T12:56:11;20.30;84.40
76172;DHT22;64929;51.178;4.138;2023-09-19T12:58:53;20.40;86.20
76172;DHT22;64929;51.178;4.138;2023-09-19T13:01:19;20.30;83.70
76172;DHT22;64929;51.178;4.138;2023-09-19T13:03:45;20.20;83.80
76172;DHT22;64929;51.178;4.138;2023-09-19T13:06:11;20.20;82.90
76172;DHT22;64929;51.178;4.138;2023-09-19T13:08:39;20.00;84.50
76172;DHT22;64929;51.178;4.138;2023-09-19T13:11:13;20.00;84.10
76172;DHT22;64929;51.178;4.138;2023-09-19T13:16:20;19.90;83.90
76172;DHT22;64929;51.178;4.138;2023-09-19T13:18:51;19.90;84.40
76172;DHT22;64929;51.178;4.138;2023-09-19T13:21:33;20.00;85.10
76172;DHT22;64929;51.178;4.138;2023-09-19T13:24:19;20.10;83.60
76172;DHT22;64929;51.178;4.138;2023-09-19T13:26:45;20.10;83.80
76172;DHT22;64929;51.178;4.138;2023-09-19T13:29:11;20.10;84.60
76172;DHT22;64929;51.178;4.138;2023-09-19T13:31:37;20.10;85.30
76172;DHT22;64929;51.178;4.138;2023-09-19T13:34:07;20.30;83.60
76172;DHT22;64929;51.178;4.138;2023-09-19T13:36:33;20.20;84.00
76172;DHT22;64929;51.178;4.138;2023-09-19T13:39:00;20.30;84.30
76172;DHT22;64929;51.178;4.138;2023-09-19T13:41:25;20.50;83.60
76172;DHT22;64929;51.178;4.138;2023-09-19T13:43:52;20.80;83.60
76172;DHT22;64929;51.178;4.138;2023-09-19T13:46:18;20.70;83.80
76172;DHT22;64929;51.178;4.138;2023-09-19T13:48:51;20.70;82.60
76172;DHT22;64929;51.178;4.138;2023-09-19T13:51:20;20.60;85.00
76172;DHT22;64929;51.178;4.138;2023-09-19T13:53:48;20.90;83.20
76172;DHT22;64929;51.178;4.138;2023-09-19T13:56:15;20.90;82.60
76172;DHT22;64929;51.178;4.138;2023-09-19T13:58:41;21.10;83.50
76172;DHT22;64929;51.178;4.138;2023-09-19T14:01:07;21.10;82.30
76172;DHT22;64929;51.178;4.138;2023-09-19T14:03:38;21.10;81.90
76172;DHT22;64929;51.178;4.138;2023-09-19T14:06:04;20.90;81.80
76172;DHT22;64929;51.178;4.138;2023-09-19T14:08:30;20.70;82.80
76172;DHT22;64929;51.178;4.138;2023-09-19T14:10:56;20.70;82.70
76172;DHT22;64929;51.178;4.138;2023-09-19T14:13:22;20.60;83.60
76172;DHT22;64929;51.178;4.138;2023-09-19T14:15:47;20.50;84.70
76172;DHT22;64929;51.178;4.138;2023-09-19T14:18:13;20.40;84.30
76172;DHT22;64929;51.178;4.138;2023-09-19T14:20:39;20.40;83.70
76172;DHT22;64929;51.178;4.138;2023-09-19T14:23:06;20.20;84.10
76172;DHT22;64929;51.178;4.138;2023-09-19T14:25:34;20.00;84.30
76172;DHT22;64929;51.178;4.138;2023-09-19T14:28:00;19.90;86.40
76172;DHT22;64929;51.178;4.138;2023-09-19T14:30:27;20.00;85.70
76172;DHT22;64929;51.178;4.138;2023-09-19T14:32:53;20.10;85.20
76172;DHT22;64929;51.178;4.138;2023-09-19T14:35:19;20.10;85.40
76172;DHT22;64929;51.178;4.138;2023-09-19T14:37:45;20.20;85.90
76172;DHT22;64929;51.178;4.138;2023-09-19T14:40:11;20.20;84.70
76172;DHT22;64929;51.178;4.138;2023-09-19T14:42:39;20.20;84.60
76172;DHT22;64929;51.178;4.138;2023-09-19T14:45:05;20.10;84.90
76172;DHT22;64929;51.178;4.138;2023-09-19T14:47:33;20.20;85.10
76172;DHT22;64929;51.178;4.138;2023-09-19T14:50:01;20.10;85.20
76172;DHT22;64929;51.178;4.138;2023-09-19T14:52:26;20.10;85.20
76172;DHT22;64929;51.178;4.138;2023-09-19T14:54:54;20.10;85.40
76172;DHT22;64929;51.178;4.138;2023-09-19T14:57:20;20.00;86.20
76172;DHT22;64929;51.178;4.138;2023-09-19T14:59:45;20.00;85.40
76172;DHT22;64929;51.178;4.138;2023-09-19T15:02:12;20.00;84.40
76172;DHT22;64929;51.178;4.138;2023-09-19T15:04:41;19.90;84.40
76172;DHT22;64929;51.178;4.138;2023-09-19T15:07:10;19.80;84.70
76172;DHT22;64929;51.178;4.138;2023-09-19T15:09:36;19.80;85.50
76172;DHT22;64929;51.178;4.138;2023-09-19T15:12:03;19.80;85.60
76172;DHT22;64929;51.178;4.138;2023-09-19T15:14:29;19.70;84.60
76172;DHT22;64929;51.178;4.138;2023-09-19T15:16:57;19.80;85.40
76172;DHT22;64929;51.178;4.138;2023-09-19T15:19:23;19.80;84.70
76172;DHT22;64929;51.178;4.138;2023-09-19T15:21:48;19.80;84.30
76172;DHT22;64929;51.178;4.138;2023-09-19T15:24:14;19.90;85.00
76172;DHT22;64929;51.178;4.138;2023-09-19T15:26:42;19.80;85.60
76172;DHT22;64929;51.178;4.138;2023-09-19T15:29:10;19.90;84.10
76172;DHT22;64929;51.178;4.138;2023-09-19T15:31:36;20.00;84.00
76172;DHT22;64929;51.178;4.138;2023-09-19T15:34:03;19.80;84.20
76172;DHT22;64929;51.178;4.138;2023-09-19T15:36:29;19.80;84.70
76172;DHT22;64929;51.178;4.138;2023-09-19T15:39:02;19.70;85.60
76172;DHT22;64929;51.178;4.138;2023-09-19T15:41:32;19.80;84.80
76172;DHT22;64929;51.178;4.138;2023-09-19T15:43:59;19.70;85.60
76172;DHT22;64929;51.178;4.138;2023-09-19T15:46:27;19.60;85.30
76172;DHT22;64929;51.178;4.138;2023-09-19T15:48:53;19.60;86.00
76172;DHT22;64929;51.178;4.138;2023-09-19T15:51:19;19.70;85.30
76172;DHT22;64929;51.178;4.138;2023-09-19T15:53:46;19.80;85.30
76172;DHT22;64929;51.178;4.138;2023-09-19T15:56:13;19.80;85.50
76172;DHT22;64929;51.178;4.138;2023-09-19T15:58:44;19.70;85.60
76172;DHT22;64929;51.178;4.138;2023-09-19T16:01:10;19.80;85.80
76172;DHT22;64929;51.178;4.138;2023-09-19T16:03:38;19.90;86.70
76172;DHT22;64929;51.178;4.138;2023-09-19T16:06:24;19.70;86.50
76172;DHT22;64929;51.178;4.138;2023-09-19T16:08:53;19.60;86.60
76172;DHT22;64929;51.178;4.138;2023-09-19T16:11:19;19.60;86.80
76172;DHT22;64929;51.178;4.138;2023-09-19T16:13:47;19.70;87.10
76172;DHT22;64929;51.178;4.138;2023-09-19T16:16:13;19.60;87.40
76172;DHT22;64929;51.178;4.138;2023-09-19T16:18:51;19.70;86.60
76172;DHT22;64929;51.178;4.138;2023-09-19T16:21:17;19.80;86.70
76172;DHT22;64929;51.178;4.138;2023-09-19T16:23:47;19.70;87.00
76172;DHT22;64929;51.178;4.138;2023-09-19T16:26:15;19.70;87.20
76172;DHT22;64929;51.178;4.138;2023-09-19T16:28:41;19.70;87.20
76172;DHT22;64929;51.178;4.138;2023-09-19T16:31:08;19.60;87.00
76172;DHT22;64929;51.178;4.138;2023-09-19T16:33:35;19.70;87.20
76172;DHT22;64929;51.178;4.138;2023-09-19T16:36:08;19.60;87.20
76172;DHT22;64929;51.178;4.138;2023-09-19T16:38:35;19.70;87.50